• Join FlightAware (Why Join?)
  • Login
  • US Flag 
05:40PM EDT


 

Airport Tracker/Info


-or-


 

Live Flight TrackerFlight Track Log ✈ EJA922 ✈ 13-Jun-2014 ✈ KAVL - KTEB

Flight Track Log - Related Links

Times and Time Zones

All times are in EDT time to prevent confusion due to time zone crossing. See the EJA922 flight status page for this flight to view local times or setup timezone preferences in your user account.

Time Position Orientation Groundspeed Altitude Reporting Facility
EDT Latitude Longitude Course Direction KTS MPH feet Rate Location/Type
01:06PM 35.5297 -82.5433 41° Northeast 221 254 8,400  Level Atlanta Center
01:07PM 35.5833 -82.4861 41° Northeast 239 275 10,000 1,740 Climbing Atlanta Center
01:08PM 35.6172 -82.3706 70° East 285 328 11,900 2,760 Climbing Atlanta Center
01:09PM 35.7086 -82.3456 13° North 293 337 15,600 3,780 Climbing Atlanta Center
01:10PM 35.8025 -82.3336 North 310 357 19,500 3,300 Climbing Atlanta Center
01:11PM 35.8878 -82.3164 North 310 357 22,200 2,340 Climbing Atlanta Center
01:12PM 35.9792 -82.3017 North 318 366 24,200 1,980 Climbing Atlanta Center
01:13PM 36.0683 -82.2611 20° North 331 381 26,200 1,860 Climbing Atlanta Center
01:14PM 36.1064 -82.1628 64° Northeast 324 373 28,000 1,860 Climbing Atlanta Center
01:15PM 36.1317 -82.0308 77° East 335 386 30,000 2,040 Climbing Atlanta Center
01:16PM 36.1583 -81.8967 76° East 364 419 32,100 1,980 Climbing Atlanta Center
01:17PM 36.1831 -81.7622 77° East 386 444 34,000 1,680 Climbing Atlanta Center
01:18PM 36.2136 -81.6172 75° East 410 472 35,500 1,500 Climbing Atlanta Center
01:19PM 36.2608 -81.4742 68° East 427 491 37,100 1,500 Climbing Atlanta Center
01:20PM 36.3142 -81.3281 66° East 440 506 38,600 1,500 Climbing Atlanta Center
01:21PM 36.3378 -81.1728 79° East 450 518 40,100 1,200 Climbing Atlanta Center
01:22PM 36.3650 -81.0119 78° East 461 531 41,000 420 Climbing Atlanta Center
01:23PM 36.3922 -80.8483 78° East 471 542 41,000  Level Atlanta Center
01:24PM 36.4225 -80.6589 79° East 485 558 41,000  Level Atlanta Center
01:27PM 36.4919 -80.2269 79° East 526 605 41,000  Level Washington Center
01:28PM 36.5217 -80.0506 78° East 524 603 41,000  Level Washington Center
01:29PM 36.5772 -79.9011 65° Northeast 524 603 41,000  Level Washington Center
01:30PM 36.6628 -79.7219 59° Northeast 531 611 41,000  Level Washington Center
01:31PM 36.7303 -79.5778 60° Northeast 536 617 41,000  Level Washington Center
01:32PM 36.8131 -79.4031 59° Northeast 530 610 41,000  Level Washington Center
01:33PM 36.8781 -79.2583 61° Northeast 530 610 41,000  Level Washington Center
01:34PM 36.9606 -79.0803 60° Northeast 530 610 41,000  Level Washington Center
01:35PM 37.0253 -78.9400 60° Northeast 530 610 41,000  Level Washington Center
01:36PM 37.1072 -78.7639 60° Northeast 530 610 41,000 -360 Level Washington Center
01:37PM 37.1800 -78.6053 60° Northeast 522 601 40,300 -1,140 Descending Washington Center
01:38PM 37.2528 -78.4464 60° Northeast 522 601 38,800 -1,680 Descending Washington Center
01:39PM 37.3253 -78.2897 60° Northeast 516 594 37,000 -1,980 Descending Washington Center
01:40PM 37.4281 -78.1653 44° Northeast 522 601 34,900 -2,400 Descending Washington Center
01:41PM 37.5264 -78.0558 41° Northeast 515 593 32,300 -2,520 Descending Washington Center
01:42PM 37.6372 -77.9364 40° Northeast 515 593 30,000 -1,140 Descending Washington Center
01:43PM 37.7481 -77.8136 41° Northeast 520 598 30,000  Level Washington Center
01:44PM 37.8608 -77.6908 41° Northeast 520 598 30,000  Level Washington Center
01:45PM 37.9756 -77.5647 41° Northeast 525 604 30,000  Level Washington Center
01:46PM 38.1008 -77.4256 41° Northeast 530 610 30,000  Level Washington Center
01:47PM 38.1928 -77.2747 52° Northeast 540 621 30,000  Level Washington Center
01:48PM 38.2575 -77.1147 63° Northeast 550 633 30,000  Level Washington Center
01:49PM 38.3533 -76.9447 54° Northeast 550 633 30,000 -480 Level Washington Center
01:50PM 38.4711 -76.8408 35° Northeast 548 631 29,100 -540 Descending Washington Center
01:51PM 38.6014 -76.7314 33° Northeast 553 636 29,000 -60 Descending Washington Center
01:52PM 38.7317 -76.6242 33° Northeast 553 636 29,000  Level Washington Center
01:53PM 38.8597 -76.5139 34° Northeast 553 636 29,000 -1,860 Level Washington Center
01:54PM 38.9856 -76.4114 32° Northeast 553 636 25,300 -2,520 Descending Washington Center
01:55PM 39.0925 -76.2978 39° Northeast 531 611 24,000 -660 Descending Washington Center
01:56PM 39.1892 -76.1861 42° Northeast 490 564 24,000  Level Washington Center
01:57PM 39.3064 -76.0611 40° Northeast 478 550 24,000 -1,800 Level Washington Center
01:59PM 39.5667 -75.8167 36° Northeast 463 533 18,300 -2,520 Descending Philadelphia TRACON
02:00PM 39.6833 -75.7000 38° Northeast 437 503 15,400 -2,400 Descending Philadelphia TRACON
02:01PM 39.7833 -75.6167 33° Northeast 437 503 13,100 -1,200 Descending Philadelphia TRACON
02:02PM 39.8833 -75.5167 37° Northeast 437 503 13,100  Level Philadelphia TRACON
02:03PM 39.9667 -75.4333 37° Northeast 448 516 13,100  Level Philadelphia TRACON
02:04PM 40.0833 -75.3333 33° Northeast 439 505 13,100 -120 Level Philadelphia TRACON
02:05PM 40.1667 -75.2500 37° Northeast 435 501 12,900 -1,200 Descending Philadelphia TRACON
02:06PM 40.2667 -75.1667 32° Northeast 371 427 10,800 -1,920 Descending Philadelphia TRACON
02:08PM 40.3667 -75.0500 42° Northeast 308 354 7,800 -1,560 Descending New York TRACON
02:09PM 40.4167 -74.9667 52° Northeast 282 325 6,900 -1,380 Descending New York TRACON
02:10PM 40.4833 -74.8833 44° Northeast 289 333 5,100 -1,500 Descending New York TRACON
02:11PM 40.5333 -74.8167 45° Northeast 276 318 4,000 -540 Descending New York TRACON
02:12PM 40.5833 -74.7667 37° Northeast 258 297 4,100  Climbing New York TRACON
02:13PM 40.6500 -74.7000 37° Northeast 282 325 4,100  Level New York TRACON
02:14PM 40.7167 -74.6333 37° Northeast 280 322 4,100 -240 Level New York TRACON
02:15PM 40.7833 -74.5833 30° Northeast 271 312 3,600 -600 Descending New York TRACON
02:16PM 40.8333 -74.5333 37° Northeast 262 302 3,000 -300 Descending New York TRACON
02:17PM 40.9000 -74.4667 37° Northeast 266 306 3,100  Climbing New York TRACON
02:18PM 40.9333 -74.4000 56° Northeast 271 312 3,000 -360 Descending New York TRACON
02:19PM 40.9667 -74.3000 66° East 267 307 2,500 -540 Descending New York TRACON
02:20PM 40.9833 -74.2167 75° East 229 264 2,000 -300 Descending New York TRACON
02:21PM 41.0000 -74.1333 75° East 236 272 2,000  Level New York TRACON
02:22PM 41.0000 -74.0667 90° East 225 259 2,100  Climbing New York TRACON
02:23PM 40.9667 -74.0500 159° South 163 188 2,100 -360 Level New York TRACON
02:24PM 40.9167 -74.0500 180° South 146 168 1,400 -780 Descending New York TRACON
02:25PM 40.8833 -74.0500 180° South 140 161 600 -840 Descending New York TRACON